sensor_id;sensor_type;location;lat;lon;timestamp;pressure;altitude;pressure_sealevel;temperature;humidity
63881;BME280;50046;46.672;11.152;2022-07-06T00:00:09;98276.50;;;20.99;50.96
63881;BME280;50046;46.672;11.152;2022-07-06T00:00:20;98282.31;;;20.98;50.83
63881;BME280;50046;46.672;11.152;2022-07-06T00:00:30;98280.38;;;20.98;50.73
63881;BME280;50046;46.672;11.152;2022-07-06T00:00:41;98282.31;;;20.98;50.97
63881;BME280;50046;46.672;11.152;2022-07-06T00:00:52;98273.28;;;20.97;50.86
63881;BME280;50046;46.672;11.152;2022-07-06T00:01:03;98282.31;;;20.98;50.91
63881;BME280;50046;46.672;11.152;2022-07-06T00:01:13;98283.47;;;20.97;50.74
63881;BME280;50046;46.672;11.152;2022-07-06T00:01:23;98276.81;;;20.98;50.73
63881;BME280;50046;46.672;11.152;2022-07-06T00:01:34;98272.47;;;20.97;51.03
63881;BME280;50046;46.672;11.152;2022-07-06T00:01:45;98280.72;;;20.97;50.87
63881;BME280;50046;46.672;11.152;2022-07-06T00:01:56;98280.38;;;20.98;50.92
63881;BME280;50046;46.672;11.152;2022-07-06T00:02:06;98282.00;;;20.99;50.71
63881;BME280;50046;46.672;11.152;2022-07-06T00:02:16;98279.56;;;20.98;50.89
63881;BME280;50046;46.672;11.152;2022-07-06T00:02:27;98282.00;;;20.99;50.90
63881;BME280;50046;46.672;11.152;2022-07-06T00:02:37;98278.47;;;20.99;51.02
63881;BME280;50046;46.672;11.152;2022-07-06T00:02:47;98281.66;;;21.01;50.85
63881;BME280;50046;46.672;11.152;2022-07-06T00:02:58;98280.06;;;21.00;50.77
63881;BME280;50046;46.672;11.152;2022-07-06T00:03:08;98282.31;;;20.98;50.77
63881;BME280;50046;46.672;11.152;2022-07-06T00:03:19;98282.31;;;20.98;50.70
63881;BME280;50046;46.672;11.152;2022-07-06T00:03:29;98282.31;;;20.98;51.00
63881;BME280;50046;46.672;11.152;2022-07-06T00:03:40;98286.50;;;20.95;51.09
63881;BME280;50046;46.672;11.152;2022-07-06T00:03:50;98281.34;;;20.94;50.99
63881;BME280;50046;46.672;11.152;2022-07-06T00:04:01;98282.78;;;20.91;50.76
63881;BME280;50046;46.672;11.152;2022-07-06T00:04:12;98285.88;;;20.90;50.98
63881;BME280;50046;46.672;11.152;2022-07-06T00:04:23;98283.94;;;20.90;50.79
63881;BME280;50046;46.672;11.152;2022-07-06T00:04:33;98287.81;;;20.89;51.06
63881;BME280;50046;46.672;11.152;2022-07-06T00:04:44;98280.72;;;20.88;50.77
63881;BME280;50046;46.672;11.152;2022-07-06T00:04:54;98288.44;;;20.86;51.03
63881;BME280;50046;46.672;11.152;2022-07-06T00:05:05;98286.84;;;20.85;51.25
63881;BME280;50046;46.672;11.152;2022-07-06T00:05:15;98288.00;;;20.84;51.21
63881;BME280;50046;46.672;11.152;2022-07-06T00:05:56;98288.44;;;20.86;51.24
63881;BME280;50046;46.672;11.152;2022-07-06T00:06:06;98289.59;;;20.85;51.42
63881;BME280;50046;46.672;11.152;2022-07-06T00:06:16;98289.44;;;20.81;51.02
63881;BME280;50046;46.672;11.152;2022-07-06T00:06:27;98288.63;;;20.81;51.11
63881;BME280;50046;46.672;11.152;2022-07-06T00:06:38;98287.81;;;20.80;51.17
63881;BME280;50046;46.672;11.152;2022-07-06T00:06:48;98287.50;;;20.82;51.35
63881;BME280;50046;46.672;11.152;2022-07-06T00:06:59;98286.22;;;20.79;51.65
63881;BME280;50046;46.672;11.152;2022-07-06T00:07:09;98284.59;;;20.78;51.64
63881;BME280;50046;46.672;11.152;2022-07-06T00:07:20;98288.97;;;20.79;51.72
63881;BME280;50046;46.672;11.152;2022-07-06T00:07:31;98287.00;;;20.80;51.67
63881;BME280;50046;46.672;11.152;2022-07-06T00:07:42;98284.13;;;20.76;51.90
63881;BME280;50046;46.672;11.152;2022-07-06T00:07:52;98287.97;;;20.75;51.73
63881;BME280;50046;46.672;11.152;2022-07-06T00:08:03;98286.88;;;20.76;51.61
63881;BME280;50046;46.672;11.152;2022-07-06T00:08:13;98284.94;;;20.77;52.05
63881;BME280;50046;46.672;11.152;2022-07-06T00:08:24;98286.53;;;20.78;51.47
63881;BME280;50046;46.672;11.152;2022-07-06T00:08:35;98289.28;;;20.78;51.63
63881;BME280;50046;46.672;11.152;2022-07-06T00:08:46;98287.66;;;20.77;51.97
63881;BME280;50046;46.672;11.152;2022-07-06T00:08:56;98289.63;;;20.76;52.21
63881;BME280;50046;46.672;11.152;2022-07-06T00:09:07;98284.13;;;20.76;51.99
63881;BME280;50046;46.672;11.152;2022-07-06T00:09:18;98283.78;;;20.78;51.89
63881;BME280;50046;46.672;11.152;2022-07-06T00:09:28;98288.97;;;20.79;51.69
63881;BME280;50046;46.672;11.152;2022-07-06T00:09:38;98289.75;;;20.80;51.90
63881;BME280;50046;46.672;11.152;2022-07-06T00:09:49;98294.75;;;20.78;51.62
63881;BME280;50046;46.672;11.152;2022-07-06T00:09:59;98289.63;;;20.76;51.91
63881;BME280;50046;46.672;11.152;2022-07-06T00:10:10;98289.63;;;20.76;51.55
63881;BME280;50046;46.672;11.152;2022-07-06T00:10:20;98288.47;;;20.77;51.52
63881;BME280;50046;46.672;11.152;2022-07-06T00:10:30;98287.97;;;20.75;50.67
63881;BME280;50046;46.672;11.152;2022-07-06T00:10:41;98287.97;;;20.75;50.92
63881;BME280;50046;46.672;11.152;2022-07-06T00:10:51;98284.13;;;20.76;50.91
63881;BME280;50046;46.672;11.152;2022-07-06T00:11:02;98288.78;;;20.76;50.68
63881;BME280;50046;46.672;11.152;2022-07-06T00:11:12;98282.50;;;20.75;50.71
63881;BME280;50046;46.672;11.152;2022-07-06T00:11:23;98288.78;;;20.76;50.70
63881;BME280;50046;46.672;11.152;2022-07-06T00:11:33;98285.72;;;20.77;50.70
63881;BME280;50046;46.672;11.152;2022-07-06T00:11:44;98291.53;;;20.76;50.64
63881;BME280;50046;46.672;11.152;2022-07-06T00:11:54;98287.97;;;20.75;50.63
63881;BME280;50046;46.672;11.152;2022-07-06T00:12:05;98291.53;;;20.76;50.79
63881;BME280;50046;46.672;11.152;2022-07-06T00:12:15;98285.25;;;20.75;50.54
63881;BME280;50046;46.672;11.152;2022-07-06T00:12:26;98291.53;;;20.76;50.65
63881;BME280;50046;46.672;11.152;2022-07-06T00:12:36;98289.63;;;20.76;50.88
63881;BME280;50046;46.672;11.152;2022-07-06T00:12:47;98292.81;;;20.78;50.91
63881;BME280;50046;46.672;11.152;2022-07-06T00:12:57;98290.91;;;20.79;50.50
63881;BME280;50046;46.672;11.152;2022-07-06T00:13:08;98290.91;;;20.79;50.71
63881;BME280;50046;46.672;11.152;2022-07-06T00:13:18;98291.72;;;20.79;50.64
63881;BME280;50046;46.672;11.152;2022-07-06T00:13:29;98299.13;;;20.79;51.19
63881;BME280;50046;46.672;11.152;2022-07-06T00:13:39;98293.66;;;20.79;50.99
63881;BME280;50046;46.672;11.152;2022-07-06T00:13:50;98293.66;;;20.79;51.05
63881;BME280;50046;46.672;11.152;2022-07-06T00:14:01;98290.06;;;20.78;51.12
63881;BME280;50046;46.672;11.152;2022-07-06T00:14:11;98288.16;;;20.79;51.59
63881;BME280;50046;46.672;11.152;2022-07-06T00:14:22;98300.25;;;20.78;51.76
63881;BME280;50046;46.672;11.152;2022-07-06T00:14:32;98293.97;;;20.77;51.90
63881;BME280;50046;46.672;11.152;2022-07-06T00:14:43;98296.72;;;20.77;52.08
63881;BME280;50046;46.672;11.152;2022-07-06T00:14:53;98301.06;;;20.78;52.05
63881;BME280;50046;46.672;11.152;2022-07-06T00:15:04;98300.25;;;20.78;52.49
63881;BME280;50046;46.672;11.152;2022-07-06T00:15:15;98298.16;;;20.75;52.42
63881;BME280;50046;46.672;11.152;2022-07-06T00:15:25;98300.09;;;20.74;52.56
63881;BME280;50046;46.672;11.152;2022-07-06T00:15:36;98294.13;;;20.72;52.24
63881;BME280;50046;46.672;11.152;2022-07-06T00:15:46;98301.88;;;20.70;52.11
63881;BME280;50046;46.672;11.152;2022-07-06T00:15:57;98299.47;;;20.69;52.02
63881;BME280;50046;46.672;11.152;2022-07-06T00:16:07;98298.63;;;20.68;52.37
63881;BME280;50046;46.672;11.152;2022-07-06T00:16:18;98303.31;;;20.68;52.16
63881;BME280;50046;46.672;11.152;2022-07-06T00:16:29;98300.56;;;20.68;52.36
63881;BME280;50046;46.672;11.152;2022-07-06T00:16:40;98304.13;;;20.68;51.72
63881;BME280;50046;46.672;11.152;2022-07-06T00:16:50;98305.25;;;20.67;51.52
63881;BME280;50046;46.672;11.152;2022-07-06T00:17:01;98301.72;;;20.67;51.44
63881;BME280;50046;46.672;11.152;2022-07-06T00:17:11;98301.06;;;20.70;51.43
63881;BME280;50046;46.672;11.152;2022-07-06T00:17:21;98294.78;;;20.69;51.42
63881;BME280;50046;46.672;11.152;2022-07-06T00:17:32;98301.06;;;20.70;51.48
63881;BME280;50046;46.672;11.152;2022-07-06T00:17:42;98301.22;;;20.73;51.56
63881;BME280;50046;46.672;11.152;2022-07-06T00:17:53;98296.56;;;20.74;50.98
63881;BME280;50046;46.672;11.152;2022-07-06T00:18:03;98307.53;;;20.74;51.39
63881;BME280;50046;46.672;11.152;2022-07-06T00:18:13;98306.69;;;20.73;51.49
63881;BME280;50046;46.672;11.152;2022-07-06T00:18:24;98295.72;;;20.73;51.45
63881;BME280;50046;46.672;11.152;2022-07-06T00:18:34;98299.63;;;20.72;51.33
63881;BME280;50046;46.672;11.152;2022-07-06T00:18:45;98299.63;;;20.72;51.03
63881;BME280;50046;46.672;11.152;2022-07-06T00:18:56;98307.03;;;20.72;51.31
63881;BME280;50046;46.672;11.152;2022-07-06T00:19:06;98301.88;;;20.70;51.14
63881;BME280;50046;46.672;11.152;2022-07-06T00:19:16;98298.81;;;20.72;51.57
63881;BME280;50046;46.672;11.152;2022-07-06T00:19:27;98303.50;;;20.71;51.23
63881;BME280;50046;46.672;11.152;2022-07-06T00:19:37;98298.81;;;20.72;51.29
63881;BME280;50046;46.672;11.152;2022-07-06T00:19:48;98296.88;;;20.72;51.50
63881;BME280;50046;46.672;11.152;2022-07-06T00:19:58;98302.66;;;20.71;51.22
63881;BME280;50046;46.672;11.152;2022-07-06T00:20:09;98300.25;;;20.69;51.49
63881;BME280;50046;46.672;11.152;2022-07-06T00:20:19;98304.13;;;20.68;50.77
63881;BME280;50046;46.672;11.152;2022-07-06T00:20:30;98299.47;;;20.69;50.70
63881;BME280;50046;46.672;11.152;2022-07-06T00:20:40;98301.72;;;20.67;50.56
63881;BME280;50046;46.672;11.152;2022-07-06T00:20:53;98301.72;;;20.67;50.99
63881;BME280;50046;46.672;11.152;2022-07-06T00:21:04;98297.34;;;20.66;50.64
63881;BME280;50046;46.672;11.152;2022-07-06T00:21:14;98301.22;;;20.65;50.77
63881;BME280;50046;46.672;11.152;2022-07-06T00:21:25;98299.28;;;20.65;50.37
63881;BME280;50046;46.672;11.152;2022-07-06T00:21:35;98302.03;;;20.65;50.05
63881;BME280;50046;46.672;11.152;2022-07-06T00:21:45;98300.91;;;20.66;50.50
63881;BME280;50046;46.672;11.152;2022-07-06T00:21:56;98301.22;;;20.65;50.28
63881;BME280;50046;46.672;11.152;2022-07-06T00:22:06;98296.88;;;20.63;50.12
63881;BME280;50046;46.672;11.152;2022-07-06T00:22:17;98295.75;;;20.65;50.50
63881;BME280;50046;46.672;11.152;2022-07-06T00:22:27;98299.78;;;20.67;50.58
63881;BME280;50046;46.672;11.152;2022-07-06T00:22:37;98304.47;;;20.67;50.46
63881;BME280;50046;46.672;11.152;2022-07-06T00:22:48;98293.78;;;20.65;50.05
63881;BME280;50046;46.672;11.152;2022-07-06T00:22:58;98299.28;;;20.65;50.30
63881;BME280;50046;46.672;11.152;2022-07-06T00:23:09;98296.53;;;20.65;50.07
63881;BME280;50046;46.672;11.152;2022-07-06T00:23:20;98306.41;;;20.66;50.16
63881;BME280;50046;46.672;11.152;2022-07-06T00:23:30;98300.91;;;20.66;50.34
63881;BME280;50046;46.672;11.152;2022-07-06T00:23:41;98303.31;;;20.68;49.97
63881;BME280;50046;46.672;11.152;2022-07-06T00:23:51;98298.63;;;20.68;50.80
63881;BME280;50046;46.672;11.152;2022-07-06T00:24:02;98303.31;;;20.68;50.50
63881;BME280;50046;46.672;11.152;2022-07-06T00:24:13;98308.31;;;20.66;50.64
63881;BME280;50046;46.672;11.152;2022-07-06T00:24:23;98305.25;;;20.67;50.57
63881;BME280;50046;46.672;11.152;2022-07-06T00:24:34;98309.94;;;20.67;50.63
63881;BME280;50046;46.672;11.152;2022-07-06T00:24:44;98304.47;;;20.67;50.76
63881;BME280;50046;46.672;11.152;2022-07-06T00:24:54;98307.69;;;20.69;51.06
63881;BME280;50046;46.672;11.152;2022-07-06T00:25:05;98303.00;;;20.69;50.98
63881;BME280;50046;46.672;11.152;2022-07-06T00:25:16;98307.34;;;20.70;50.93
63881;BME280;50046;46.672;11.152;2022-07-06T00:25:26;98303.31;;;20.68;51.02
63881;BME280;50046;46.672;11.152;2022-07-06T00:25:37;98301.06;;;20.70;51.00
63881;BME280;50046;46.672;11.152;2022-07-06T00:25:48;98309.28;;;20.70;51.31
63881;BME280;50046;46.672;11.152;2022-07-06T00:25:58;98303.50;;;20.71;51.33
63881;BME280;50046;46.672;11.152;2022-07-06T00:26:09;98307.84;;;20.72;51.36
63881;BME280;50046;46.672;11.152;2022-07-06T00:26:19;98307.84;;;20.72;51.43
63881;BME280;50046;46.672;11.152;2022-07-06T00:26:30;98311.38;;;20.73;51.32
63881;BME280;50046;46.672;11.152;2022-07-06T00:26:40;98311.38;;;20.73;51.14
63881;BME280;50046;46.672;11.152;2022-07-06T00:26:51;98307.53;;;20.74;51.00
63881;BME280;50046;46.672;11.152;2022-07-06T00:27:01;98306.69;;;20.73;51.03
63881;BME280;50046;46.672;11.152;2022-07-06T00:27:12;98302.03;;;20.74;51.26
63881;BME280;50046;46.672;11.152;2022-07-06T00:27:22;98305.25;;;20.76;50.94
63881;BME280;50046;46.672;11.152;2022-07-06T00:27:32;98307.19;;;20.75;51.13
63881;BME280;50046;46.672;11.152;2022-07-06T00:27:43;98301.69;;;20.75;50.85
63881;BME280;50046;46.672;11.152;2022-07-06T00:27:53;98304.44;;;20.75;50.78
63881;BME280;50046;46.672;11.152;2022-07-06T00:28:03;98313.47;;;20.76;51.06
63881;BME280;50046;46.672;11.152;2022-07-06T00:28:14;98309.94;;;20.75;50.72
63881;BME280;50046;46.672;11.152;2022-07-06T00:28:26;98304.94;;;20.77;50.66
63881;BME280;50046;46.672;11.152;2022-07-06T00:28:36;98310.44;;;20.77;50.81
63881;BME280;50046;46.672;11.152;2022-07-06T00:28:46;98309.28;;;20.78;50.45
63881;BME280;50046;46.672;11.152;2022-07-06T00:28:57;98307.69;;;20.77;50.62
63881;BME280;50046;46.672;11.152;2022-07-06T00:29:07;98305.72;;;20.78;50.58
63881;BME280;50046;46.672;11.152;2022-07-06T00:29:18;98310.13;;;20.79;50.64
63881;BME280;50046;46.672;11.152;2022-07-06T00:29:28;98313.16;;;20.77;50.52
63881;BME280;50046;46.672;11.152;2022-07-06T00:29:40;98313.16;;;20.77;50.60
63881;BME280;50046;46.672;11.152;2022-07-06T00:29:56;98315.91;;;20.77;50.81
63881;BME280;50046;46.672;11.152;2022-07-06T00:30:07;98317.84;;;20.77;51.18
63881;BME280;50046;46.672;11.152;2022-07-06T00:30:36;98313.16;;;20.77;51.37
63881;BME280;50046;46.672;11.152;2022-07-06T00:30:46;98306.88;;;20.77;51.56
63881;BME280;50046;46.672;11.152;2022-07-06T00:30:57;98313.03;;;20.74;51.73
63881;BME280;50046;46.672;11.152;2022-07-06T00:31:07;98323.16;;;20.73;51.73
63881;BME280;50046;46.672;11.152;2022-07-06T00:31:17;98324.78;;;20.74;51.89
63881;BME280;50046;46.672;11.152;2022-07-06T00:31:28;98318.50;;;20.74;52.22
63881;BME280;50046;46.672;11.152;2022-07-06T00:31:38;98322.38;;;20.73;51.93
63881;BME280;50046;46.672;11.152;2022-07-06T00:31:48;98323.16;;;20.73;52.06
63881;BME280;50046;46.672;11.152;2022-07-06T00:31:59;98324.78;;;20.74;52.14
63881;BME280;50046;46.672;11.152;2022-07-06T00:32:10;98325.09;;;20.73;52.03
63881;BME280;50046;46.672;11.152;2022-07-06T00:32:21;98325.59;;;20.75;51.84
63881;BME280;50046;46.672;11.152;2022-07-06T00:32:32;98326.41;;;20.75;51.93
63881;BME280;50046;46.672;11.152;2022-07-06T00:32:42;98322.84;;;20.75;51.79
63881;BME280;50046;46.672;11.152;2022-07-06T00:32:53;98323.16;;;20.73;51.34
63881;BME280;50046;46.672;11.152;2022-07-06T00:33:03;98324.63;;;20.71;51.43
63881;BME280;50046;46.672;11.152;2022-07-06T00:33:14;98325.44;;;20.71;52.10
63881;BME280;50046;46.672;11.152;2022-07-06T00:33:24;98326.56;;;20.70;51.68
63881;BME280;50046;46.672;11.152;2022-07-06T00:33:35;98326.56;;;20.70;51.94
63881;BME280;50046;46.672;11.152;2022-07-06T00:33:45;98327.69;;;20.69;51.88
63881;BME280;50046;46.672;11.152;2022-07-06T00:33:56;98326.91;;;20.69;51.85
63881;BME280;50046;46.672;11.152;2022-07-06T00:34:06;98329.94;;;20.67;52.32
63881;BME280;50046;46.672;11.152;2022-07-06T00:34:16;98331.09;;;20.66;52.14
63881;BME280;50046;46.672;11.152;2022-07-06T00:34:27;98328.16;;;20.62;52.43
63881;BME280;50046;46.672;11.152;2022-07-06T00:34:37;98329.63;;;20.60;52.41
63881;BME280;50046;46.672;11.152;2022-07-06T00:34:49;98328.81;;;20.59;52.24
63881;BME280;50046;46.672;11.152;2022-07-06T00:34:59;98323.63;;;20.58;52.33
63881;BME280;50046;46.672;11.152;2022-07-06T00:35:10;98331.56;;;20.59;52.37
63881;BME280;50046;46.672;11.152;2022-07-06T00:35:20;98328.31;;;20.57;52.37
63881;BME280;50046;46.672;11.152;2022-07-06T00:35:31;98327.53;;;20.57;52.12
63881;BME280;50046;46.672;11.152;2022-07-06T00:35:41;98325.91;;;20.56;52.11
63881;BME280;50046;46.672;11.152;2022-07-06T00:35:52;98329.97;;;20.58;52.26
63881;BME280;50046;46.672;11.152;2022-07-06T00:36:04;98326.06;;;20.59;52.25
63881;BME280;50046;46.672;11.152;2022-07-06T00:36:18;98329.97;;;20.58;52.17
63881;BME280;50046;46.672;11.152;2022-07-06T00:36:30;98326.72;;;20.56;52.41
63881;BME280;50046;46.672;11.152;2022-07-06T00:36:50;98322.34;;;20.55;52.28
63881;BME280;50046;46.672;11.152;2022-07-06T00:37:28;98333.94;;;20.52;52.91
63881;BME280;50046;46.672;11.152;2022-07-06T00:37:50;98324.59;;;20.53;53.08
63881;BME280;50046;46.672;11.152;2022-07-06T00:38:02;98325.09;;;20.55;53.05
63881;BME280;50046;46.672;11.152;2022-07-06T00:38:13;98323.97;;;20.56;53.25
63881;BME280;50046;46.672;11.152;2022-07-06T00:38:23;98321.25;;;20.56;52.94
63881;BME280;50046;46.672;11.152;2022-07-06T00:38:33;98331.06;;;20.57;53.04
63881;BME280;50046;46.672;11.152;2022-07-06T00:38:44;98322.03;;;20.57;52.79
63881;BME280;50046;46.672;11.152;2022-07-06T00:38:54;98324.78;;;20.57;52.79
63881;BME280;50046;46.672;11.152;2022-07-06T00:39:05;98325.91;;;20.56;52.72
63881;BME280;50046;46.672;11.152;2022-07-06T00:39:15;98324.28;;;20.55;52.35
63881;BME280;50046;46.672;11.152;2022-07-06T00:39:27;98321.84;;;20.53;52.55
63881;BME280;50046;46.672;11.152;2022-07-06T00:39:39;98324.28;;;20.55;51.98
63881;BME280;50046;46.672;11.152;2022-07-06T00:39:50;98333.31;;;20.55;51.91
63881;BME280;50046;46.672;11.152;2022-07-06T00:40:00;98321.53;;;20.55;51.92
63881;BME280;50046;46.672;11.152;2022-07-06T00:40:11;98323.78;;;20.53;52.00
63881;BME280;50046;46.672;11.152;2022-07-06T00:40:22;98331.72;;;20.54;51.96
63881;BME280;50046;46.672;11.152;2022-07-06T00:40:32;98333.63;;;20.54;51.59
63881;BME280;50046;46.672;11.152;2022-07-06T00:40:42;98327.84;;;20.55;51.50
63881;BME280;50046;46.672;11.152;2022-07-06T00:40:53;98330.88;;;20.54;51.88
63881;BME280;50046;46.672;11.152;2022-07-06T00:41:03;98330.09;;;20.53;52.16
63881;BME280;50046;46.672;11.152;2022-07-06T00:41:14;98326.84;;;20.51;51.63
63881;BME280;50046;46.672;11.152;2022-07-06T00:41:24;98332.34;;;20.51;51.90
63881;BME280;50046;46.672;11.152;2022-07-06T00:41:35;98331.19;;;20.52;52.04
63881;BME280;50046;46.672;11.152;2022-07-06T00:41:45;98331.53;;;20.51;51.75
63881;BME280;50046;46.672;11.152;2022-07-06T00:41:56;98327.97;;;20.50;51.94
63881;BME280;50046;46.672;11.152;2022-07-06T00:42:07;98329.91;;;20.50;51.75
63881;BME280;50046;46.672;11.152;2022-07-06T00:42:17;98327.16;;;20.50;52.16
63881;BME280;50046;46.672;11.152;2022-07-06T00:42:28;98331.34;;;20.47;52.07
63881;BME280;50046;46.672;11.152;2022-07-06T00:42:45;98332.16;;;20.48;51.92
63881;BME280;50046;46.672;11.152;2022-07-06T00:42:56;98335.22;;;20.46;51.96
63881;BME280;50046;46.672;11.152;2022-07-06T00:43:07;98331.34;;;20.47;51.81
63881;BME280;50046;46.672;11.152;2022-07-06T00:43:18;98334.44;;;20.46;51.72
63881;BME280;50046;46.672;11.152;2022-07-06T00:43:28;98331.69;;;20.46;51.94
63881;BME280;50046;46.672;11.152;2022-07-06T00:43:53;98332.16;;;20.48;51.76
63881;BME280;50046;46.672;11.152;2022-07-06T00:44:08;98333.78;;;20.49;52.11
63881;BME280;50046;46.672;11.152;2022-07-06T00:44:19;98333.78;;;20.49;51.89
63881;BME280;50046;46.672;11.152;2022-07-06T00:44:29;98334.59;;;20.49;51.90
63881;BME280;50046;46.672;11.152;2022-07-06T00:44:42;98333.28;;;20.47;52.05
63881;BME280;50046;46.672;11.152;2022-07-06T00:44:52;98329.41;;;20.48;52.18
63881;BME280;50046;46.672;11.152;2022-07-06T00:45:03;98332.16;;;20.48;52.64
63881;BME280;50046;46.672;11.152;2022-07-06T00:45:15;98332.50;;;20.46;52.73
63881;BME280;50046;46.672;11.152;2022-07-06T00:45:26;98328.94;;;20.46;52.79
63881;BME280;50046;46.672;11.152;2022-07-06T00:45:37;98334.75;;;20.44;52.81
63881;BME280;50046;46.672;11.152;2022-07-06T00:45:47;98329.25;;;20.44;52.83
63881;BME280;50046;46.672;11.152;2022-07-06T00:45:58;98337.19;;;20.46;52.74
63881;BME280;50046;46.672;11.152;2022-07-06T00:46:09;98330.84;;;20.45;53.22
63881;BME280;50046;46.672;11.152;2022-07-06T00:46:25;98335.53;;;20.45;53.16
63881;BME280;50046;46.672;11.152;2022-07-06T00:46:36;98330.41;;;20.43;53.31
63881;BME280;50046;46.672;11.152;2022-07-06T00:46:47;98332.00;;;20.44;53.13
63881;BME280;50046;46.672;11.152;2022-07-06T00:46:57;98329.75;;;20.46;53.11
63881;BME280;50046;46.672;11.152;2022-07-06T00:47:08;98332.81;;;20.45;53.19
63881;BME280;50046;46.672;11.152;2022-07-06T00:47:18;98328.13;;;20.45;53.09
63881;BME280;50046;46.672;11.152;2022-07-06T00:47:29;98332.81;;;20.45;53.37
63881;BME280;50046;46.672;11.152;2022-07-06T00:47:40;98332.81;;;20.45;53.47
63881;BME280;50046;46.672;11.152;2022-07-06T00:47:51;98332.81;;;20.45;53.50
63881;BME280;50046;46.672;11.152;2022-07-06T00:48:01;98331.50;;;20.42;53.05
63881;BME280;50046;46.672;11.152;2022-07-06T00:48:12;98331.50;;;20.42;53.09
63881;BME280;50046;46.672;11.152;2022-07-06T00:48:23;98330.69;;;20.41;53.30
63881;BME280;50046;46.672;11.152;2022-07-06T00:48:33;98335.38;;;20.41;52.99
63881;BME280;50046;46.672;11.152;2022-07-06T00:48:43;98339.44;;;20.44;53.09
63881;BME280;50046;46.672;11.152;2022-07-06T00:48:54;98334.25;;;20.42;52.74
63881;BME280;50046;46.672;11.152;2022-07-06T00:49:04;98333.13;;;20.43;52.60
63881;BME280;50046;46.672;11.152;2022-07-06T00:49:15;98340.53;;;20.42;52.82
63881;BME280;50046;46.672;11.152;2022-07-06T00:49:46;98337.00;;;20.42;52.74
63881;BME280;50046;46.672;11.152;2022-07-06T00:50:16;98341.84;;;20.45;52.72
63881;BME280;50046;46.672;11.152;2022-07-06T00:50:31;98336.69;;;20.44;52.97
63881;BME280;50046;46.672;11.152;2022-07-06T00:50:41;98337.00;;;20.42;53.36
63881;BME280;50046;46.672;11.152;2022-07-06T00:50:52;98337.00;;;20.42;53.36
63881;BME280;50046;46.672;11.152;2022-07-06T00:51:02;98335.38;;;20.41;53.48
63881;BME280;50046;46.672;11.152;2022-07-06T00:51:13;98337.31;;;20.40;53.36
63881;BME280;50046;46.672;11.152;2022-07-06T00:51:28;98349.09;;;20.41;53.58
63881;BME280;50046;46.672;11.152;2022-07-06T00:51:39;98341.66;;;20.41;53.50
63881;BME280;50046;46.672;11.152;2022-07-06T00:51:50;98341.66;;;20.41;53.58
63881;BME280;50046;46.672;11.152;2022-07-06T00:52:01;98344.09;;;20.43;53.34
63881;BME280;50046;46.672;11.152;2022-07-06T00:52:12;98339.72;;;20.42;53.41
63881;BME280;50046;46.672;11.152;2022-07-06T00:52:23;98332.94;;;20.39;53.43
63881;BME280;50046;46.672;11.152;2022-07-06T00:52:34;98340.38;;;20.39;53.31
63881;BME280;50046;46.672;11.152;2022-07-06T00:52:46;98337.13;;;20.37;53.26
63881;BME280;50046;46.672;11.152;2022-07-06T00:53:04;98344.25;;;20.38;53.23
63881;BME280;50046;46.672;11.152;2022-07-06T00:53:15;98336.03;;;20.38;53.50
63881;BME280;50046;46.672;11.152;2022-07-06T00:53:26;98347.47;;;20.40;53.33
63881;BME280;50046;46.672;11.152;2022-07-06T00:53:36;98336.50;;;20.40;53.53
63881;BME280;50046;46.672;11.152;2022-07-06T00:53:47;98341.81;;;20.36;53.38
63881;BME280;50046;46.672;11.152;2022-07-06T00:53:59;98338.94;;;20.33;53.63
63881;BME280;50046;46.672;11.152;2022-07-06T00:54:12;98341.66;;;20.33;53.30
63881;BME280;50046;46.672;11.152;2022-07-06T00:54:23;98340.03;;;20.32;53.64
63881;BME280;50046;46.672;11.152;2022-07-06T00:54:34;98341.47;;;20.29;53.37
63881;BME280;50046;46.672;11.152;2022-07-06T00:54:46;98347.31;;;20.28;53.35
63881;BME280;50046;46.672;11.152;2022-07-06T00:54:58;98341.31;;;20.26;53.23
63881;BME280;50046;46.672;11.152;2022-07-06T00:55:09;98342.94;;;20.27;53.68
63881;BME280;50046;46.672;11.152;2022-07-06T00:55:26;98345.66;;;20.27;53.75
63881;BME280;50046;46.672;11.152;2022-07-06T00:55:38;98342.13;;;20.26;53.69
63881;BME280;50046;46.672;11.152;2022-07-06T00:55:51;98345.66;;;20.27;53.71
63881;BME280;50046;46.672;11.152;2022-07-06T00:56:02;98339.38;;;20.26;53.75
63881;BME280;50046;46.672;11.152;2022-07-06T00:56:13;98342.28;;;20.30;54.03
63881;BME280;50046;46.672;11.152;2022-07-06T00:56:25;98342.28;;;20.30;54.03
63881;BME280;50046;46.672;11.152;2022-07-06T00:56:36;98345.03;;;20.30;54.07
63881;BME280;50046;46.672;11.152;2022-07-06T00:56:47;98345.03;;;20.30;54.03
63881;BME280;50046;46.672;11.152;2022-07-06T00:56:58;98341.97;;;20.31;53.86
63881;BME280;50046;46.672;11.152;2022-07-06T00:57:09;98343.91;;;20.31;53.35
63881;BME280;50046;46.672;11.152;2022-07-06T00:57:19;98348.25;;;20.32;53.37
63881;BME280;50046;46.672;11.152;2022-07-06T00:57:30;98341.97;;;20.31;53.33
63881;BME280;50046;46.672;11.152;2022-07-06T00:57:42;98340.84;;;20.32;53.29
63881;BME280;50046;46.672;11.152;2022-07-06T00:57:54;98340.03;;;20.32;52.88
63881;BME280;50046;46.672;11.152;2022-07-06T00:58:06;98337.28;;;20.32;53.15
63881;BME280;50046;46.672;11.152;2022-07-06T00:58:16;98337.78;;;20.34;52.88
63881;BME280;50046;46.672;11.152;2022-07-06T00:58:27;98338.59;;;20.34;53.09
63881;BME280;50046;46.672;11.152;2022-07-06T00:58:37;98343.28;;;20.34;52.83
63881;BME280;50046;46.672;11.152;2022-07-06T00:58:48;98338.94;;;20.33;53.05
63881;BME280;50046;46.672;11.152;2022-07-06T00:59:00;98343.59;;;20.32;52.79
63881;BME280;50046;46.672;11.152;2022-07-06T00:59:10;98340.69;;;20.29;53.09